CheckWX is a tool to help pilots better visualize weather data.  It is not intended as a substitute for an official pre-flight weather briefing.

14:52:12 UTC

KPRS METAR
Presidio Lely International Airport
Presidio, Texas, USA
Current

17 mins ago

KPRS 221435Z AUTO 36003KT 10SM CLR 24/08 A2997 RMK AO2 T02360076
Observed
Apr-22 @ 14:35 UTC
Wind
  • 360° at 3 KTS
Visibility
10 SM
Flight Rules
VFR
Cloud Levels
  • Clear skies
Temperature
24°C / 75°F
Dewpoint
C / 46°F
Humidity
36%
Altimeter
29.97" Hg
Pressure
1014.92 hPa
Previous

37 mins ago

KPRS 221415Z AUTO 35004KT 10SM CLR 23/08 A2996 RMK AO2 T02330075
Observed
Apr-22 @ 14:15 UTC
Wind
  • 350° at 4 KTS
Visibility
10 SM
Flight Rules
VFR
Cloud Levels
  • Clear skies
Temperature
23°C / 73°F
Dewpoint
C / 46°F
Humidity
38%
Altimeter
29.96" Hg
Pressure
1014.52 hPa
Previous

57 mins ago

KPRS 221355Z AUTO 36004KT 10SM CLR 22/07 A2996 RMK AO2 T02240066
Observed
Apr-22 @ 13:55 UTC
Wind
  • 360° at 4 KTS
Visibility
10 SM
Flight Rules
VFR
Cloud Levels
  • Clear skies
Temperature
22°C / 72°F
Dewpoint
C / 45°F
Humidity
38%
Altimeter
29.96" Hg
Pressure
1014.52 hPa